Time;durP1;ratioP1;P1;durP2;ratioP2;P2;SDS_P1;SDS_P2;PMS_P1;PMS_P2;Temp;Humidity;BMP_temperature;BMP_pressure;BME280_temperature;BME280_humidity;BME280_pressure;Samples;Min_cycle;Max_cycle;Signal;HPM_P1;HPM_P2
2023/05/10 00:00:17;;;;;;;4.13;0.60;;;;;;;18.01;67.02;98955.56;4959724;28;20059;-77
2023/05/10 00:02:44;;;;;;;0.43;0.43;;;;;;;18.00;67.06;98956.56;4961745;28;20047;-77
2023/05/10 00:05:11;;;;;;;0.50;0.50;;;;;;;18.01;66.87;98960.06;4975256;28;20781;-77
2023/05/10 00:07:37;;;;;;;0.40;0.40;;;;;;;17.99;66.63;98952.25;4992235;28;20050;-77
2023/05/10 00:10:04;;;;;;;1.13;0.70;;;;;;;17.98;66.65;98948.72;4981252;28;20049;-77
2023/05/10 00:12:31;;;;;;;0.45;0.45;;;;;;;17.97;66.53;98949.72;4973881;28;20150;-77
2023/05/10 00:14:57;;;;;;;0.30;0.30;;;;;;;17.94;66.42;98938.56;5080227;22;20419;-85
2023/05/10 00:17:24;;;;;;;0.73;0.40;;;;;;;17.92;66.12;98941.38;5051027;28;20076;-85
2023/05/10 00:19:50;;;;;;;0.73;0.63;;;;;;;17.87;66.15;98935.66;5051244;28;20044;-84
2023/05/10 00:22:17;;;;;;;1.70;0.80;;;;;;;17.84;66.20;98938.66;5051250;28;20454;-84
2023/05/10 00:24:43;;;;;;;0.80;0.80;;;;;;;17.79;66.37;98941.75;5057454;28;20049;-84
2023/05/10 00:27:10;;;;;;;0.95;0.95;;;;;;;17.74;66.36;98933.41;5070922;28;20528;-85
2023/05/10 00:29:36;;;;;;;1.10;1.00;;;;;;;17.70;66.55;98937.38;5069898;28;20066;-84
2023/05/10 00:32:03;;;;;;;2.00;1.23;;;;;;;17.66;66.54;98936.00;5071227;28;20056;-84
2023/05/10 00:34:30;;;;;;;1.20;1.10;;;;;;;17.62;66.76;98924.00;5071113;28;20285;-84
2023/05/10 00:36:57;;;;;;;1.10;0.98;;;;;;;17.58;66.62;98926.97;5069291;28;20102;-84
2023/05/10 00:39:23;;;;;;;1.05;0.77;;;;;;;17.58;66.76;98929.63;5070972;28;20044;-84
2023/05/10 00:41:50;;;;;;;0.77;0.77;;;;;;;17.55;66.70;98932.59;5071146;28;20144;-84
2023/05/10 00:44:16;;;;;;;0.80;0.80;;;;;;;17.54;66.79;98930.91;5070868;28;20048;-83
2023/05/10 00:46:43;;;;;;;0.88;0.80;;;;;;;17.51;66.70;98925.91;5068955;28;20056;-84
2023/05/10 00:49:10;;;;;;;1.95;0.80;;;;;;;17.48;66.94;98925.38;5070978;28;20062;-84
2023/05/10 00:51:36;;;;;;;1.35;0.90;;;;;;;17.44;67.05;98931.00;5069540;28;20064;-84
2023/05/10 00:54:03;;;;;;;1.35;0.98;;;;;;;17.40;66.96;98921.66;5069719;28;20106;-83
2023/05/10 00:56:31;;;;;;;0.90;0.88;;;;;;;17.39;66.77;98924.47;5069046;28;20281;-84
2023/05/10 00:58:58;;;;;;;0.80;0.80;;;;;;;17.36;67.51;98914.97;5070739;28;20478;-84
2023/05/10 01:01:24;;;;;;;2.05;0.70;;;;;;;17.35;67.40;98918.63;5070582;28;20053;-84
2023/05/10 01:03:52;;;;;;;0.55;0.50;;;;;;;17.34;67.39;98910.81;5070395;28;20139;-84
2023/05/10 01:06:18;;;;;;;0.80;0.80;;;;;;;17.33;67.54;98912.63;5070332;28;20541;-84
2023/05/10 01:08:45;;;;;;;0.68;0.68;;;;;;;17.34;67.22;98916.13;5068725;28;20056;-85
2023/05/10 01:11:12;;;;;;;0.80;0.80;;;;;;;17.32;67.66;98914.44;5069225;28;20063;-84
2023/05/10 01:13:42;;;;;;;1.42;1.02;;;;;;;17.31;67.73;98920.75;5069350;28;20128;-84
2023/05/10 01:16:08;;;;;;;1.30;1.20;;;;;;;17.31;67.66;98912.75;5069812;28;20101;-85
2023/05/10 01:18:38;;;;;;;1.00;1.00;;;;;;;17.31;67.90;98920.75;5069143;28;20590;-84
2023/05/10 01:21:17;;;;;;;1.52;1.42;;;;;;;17.30;68.62;98921.75;5070347;28;20522;-84
2023/05/10 01:24:21;;;;;;;2.10;1.90;;;;;;;17.28;68.83;98913.09;5070361;28;20415;-84
2023/05/10 01:27:02;;;;;;;2.80;2.42;;;;;;;17.34;67.49;98922.25;5069463;28;20059;-83
2023/05/10 01:29:47;;;;;;;3.35;3.08;;;;;;;17.28;68.39;98918.41;5069635;28;20048;-83
2023/05/10 01:32:30;;;;;;;4.45;4.05;;;;;;;17.27;68.49;98914.06;5068761;28;20525;-84
2023/05/10 01:35:06;;;;;;;5.18;4.68;;;;;;;17.27;68.25;98916.72;5069761;28;20045;-83
2023/05/10 01:37:58;;;;;;;6.28;5.68;;;;;;;17.25;68.67;98924.03;5069754;28;20437;-83
2023/05/10 01:40:57;;;;;;;6.32;5.75;;;;;;;17.25;68.91;98926.69;5048938;28;20048;-83
2023/05/10 01:43:33;;;;;;;5.43;4.93;;;;;;;17.26;68.49;98925.69;5048835;28;20048;-84
2023/05/10 01:46:14;;;;;;;4.47;4.07;;;;;;;17.23;68.49;98920.66;5048506;28;20049;-83
2023/05/10 01:48:48;;;;;;;4.45;4.05;;;;;;;17.24;68.00;98916.19;5055862;28;20049;-84
2023/05/10 01:51:23;;;;;;;4.32;3.97;;;;;;;17.22;68.35;98921.66;5070046;28;20515;-84
2023/05/10 01:53:54;;;;;;;4.13;3.80;;;;;;;17.24;68.06;98926.84;5069488;28;20406;-84
2023/05/10 01:56:24;;;;;;;4.00;3.65;;;;;;;17.22;67.97;98926.97;5069541;28;20262;-84
2023/05/10 01:58:52;;;;;;;3.70;3.40;;;;;;;17.22;67.98;98924.31;5069542;28;20415;-84
2023/05/10 02:01:21;;;;;;;3.80;3.50;;;;;;;17.23;68.04;98930.47;5069896;28;20060;-84
2023/05/10 02:03:51;;;;;;;4.05;3.75;;;;;;;17.22;68.00;98926.97;5068731;28;20048;-84
2023/05/10 02:06:21;;;;;;;3.40;3.10;;;;;;;17.22;68.07;98929.63;5069365;28;20053;-84
2023/05/10 02:08:49;;;;;;;2.95;2.75;;;;;;;17.21;67.77;98927.97;5069191;28;20507;-83
2023/05/10 02:11:18;;;;;;;2.95;2.75;;;;;;;17.19;67.83;98922.81;5069715;28;20071;-83
2023/05/10 02:13:47;;;;;;;2.85;2.58;;;;;;;17.18;67.57;98933.59;5069714;28;20067;-83
2023/05/10 02:16:16;;;;;;;2.20;2.00;;;;;;;17.15;67.53;98928.56;5067761;28;20564;-84
2023/05/10 02:18:43;;;;;;;2.92;2.13;;;;;;;17.11;67.14;98941.31;5069337;28;20450;-84
2023/05/10 02:21:10;;;;;;;2.38;2.17;;;;;;;17.08;67.38;98938.16;5069788;28;20471;-84
2023/05/10 02:23:38;;;;;;;1.98;1.88;;;;;;;17.03;67.04;98942.06;5069634;28;20053;-83
2023/05/10 02:26:06;;;;;;;1.92;1.77;;;;;;;17.00;67.18;98958.28;5069258;28;20044;-83
2023/05/10 02:28:35;;;;;;;1.67;1.58;;;;;;;16.96;67.12;98951.59;5069235;28;20053;-83
2023/05/10 02:31:02;;;;;;;1.63;1.52;;;;;;;16.92;66.88;98960.84;5072052;28;20061;-83
2023/05/10 02:33:31;;;;;;;1.55;1.45;;;;;;;16.87;67.01;98963.13;5073501;28;20064;-83
2023/05/10 02:35:58;;;;;;;1.63;1.52;;;;;;;16.84;66.83;98963.41;5073201;28;20059;-83
2023/05/10 02:38:26;;;;;;;2.78;1.80;;;;;;;16.80;66.80;98970.84;5073151;28;20044;-83
2023/05/10 02:40:54;;;;;;;2.20;2.00;;;;;;;16.75;66.84;98965.16;5073201;28;20045;-83
2023/05/10 02:43:23;;;;;;;4.55;1.83;;;;;;;16.68;66.67;98968.38;5073348;28;20056;-83
2023/05/10 02:45:49;;;;;;;2.25;2.00;;;;;;;16.64;66.51;98968.84;5071495;28;20071;-84
2023/05/10 02:48:18;;;;;;;2.40;2.20;;;;;;;16.59;66.66;98963.13;5072474;28;20054;-83
2023/05/10 02:50:48;;;;;;;3.08;2.55;;;;;;;16.54;66.88;98968.88;5071593;28;20057;-83
2023/05/10 02:53:27;;;;;;;2.72;2.53;;;;;;;16.46;67.14;98971.41;5071680;28;20052;-83
2023/05/10 02:55:58;;;;;;;2.38;2.17;;;;;;;16.44;67.07;98968.09;5072632;28;20060;-83
2023/05/10 02:58:25;;;;;;;2.97;2.67;;;;;;;16.40;67.06;98962.19;5072499;28;20421;-83
2023/05/10 03:00:51;;;;;;;2.85;2.65;;;;;;;16.35;67.16;98967.97;5071812;28;20052;-83
2023/05/10 03:03:19;;;;;;;2.70;2.50;;;;;;;16.34;67.28;98960.13;5072777;28;20045;-83
2023/05/10 03:05:46;;;;;;;3.00;2.80;;;;;;;16.31;67.17;98960.41;5071278;28;20056;-83
2023/05/10 03:08:12;;;;;;;4.15;3.20;;;;;;;16.31;67.37;98965.72;5072238;28;20048;-83
2023/05/10 03:10:55;;;;;;;3.20;2.90;;;;;;;16.23;67.90;98958.50;5072892;28;20045;-83
2023/05/10 03:13:40;;;;;;;3.35;3.05;;;;;;;16.21;67.76;98955.97;5071356;28;20419;-83
2023/05/10 03:16:15;;;;;;;4.15;2.95;;;;;;;16.19;67.85;98957.97;5072109;28;20075;-83
2023/05/10 03:18:48;;;;;;;3.30;3.00;;;;;;;16.19;67.62;98965.06;5053648;28;20147;-83
2023/05/10 03:21:17;;;;;;;3.40;2.90;;;;;;;16.18;67.52;98963.41;5052455;28;20060;-83
2023/05/10 03:23:51;;;;;;;3.58;3.28;;;;;;;16.14;67.73;98968.16;5060278;28;20060;-83
2023/05/10 03:26:22;;;;;;;3.88;3.58;;;;;;;16.11;67.62;98969.28;5054251;28;20395;-82
2023/05/10 03:28:50;;;;;;;3.80;3.40;;;;;;;16.09;67.40;98973.91;5072179;28;20059;-83
2023/05/10 03:31:17;;;;;;;3.78;3.47;;;;;;;16.07;67.71;98961.75;5054524;28;20410;-82
2023/05/10 03:33:48;;;;;;;3.72;3.42;;;;;;;16.04;68.04;98962.88;5049429;28;20507;-83
2023/05/10 03:36:15;;;;;;;3.70;3.40;;;;;;;16.04;67.69;98972.66;5052313;28;20382;-83
2023/05/10 03:38:42;;;;;;;5.15;3.70;;;;;;;16.01;67.74;98977.25;5034421;28;20114;-84
2023/05/10 03:41:08;;;;;;;4.22;3.83;;;;;;;16.01;67.78;98979.06;5034134;28;20061;-83
2023/05/10 03:43:35;;;;;;;4.55;3.30;;;;;;;15.99;67.90;98984.53;5034696;28;20555;-83
2023/05/10 03:46:05;;;;;;;4.05;3.63;;;;;;;15.96;68.23;98990.09;5071629;28;20049;-83
2023/05/10 03:48:32;;;;;;;4.40;3.90;;;;;;;15.96;67.69;98992.75;5071684;28;20052;-83
2023/05/10 03:50:59;;;;;;;4.05;3.65;;;;;;;15.95;67.85;98993.75;5054031;28;20479;-82
2023/05/10 03:53:26;;;;;;;4.60;3.63;;;;;;;15.93;67.75;98997.50;5071987;28;20065;-83
2023/05/10 03:55:53;;;;;;;6.35;4.03;;;;;;;15.93;67.97;98990.38;5054467;28;20049;-82
2023/05/10 03:58:19;;;;;;;4.75;4.32;;;;;;;15.92;67.81;98995.81;5051380;28;20053;-83
2023/05/10 04:00:46;;;;;;;4.60;4.20;;;;;;;15.90;67.65;98998.63;5051817;28;20056;-83
2023/05/10 04:03:12;;;;;;;5.15;4.50;;;;;;;15.89;67.95;98996.94;5034046;28;20057;-82
2023/05/10 04:05:39;;;;;;;5.30;4.80;;;;;;;15.88;67.88;99003.22;5063206;28;20053;-82
2023/05/10 04:08:06;;;;;;;5.22;4.72;;;;;;;15.85;68.03;99003.50;5071463;28;20066;-82
2023/05/10 04:10:32;;;;;;;7.68;5.43;;;;;;;15.82;68.04;98998.47;5071624;28;20095;-82
2023/05/10 04:12:59;;;;;;;5.43;4.90;;;;;;;15.80;68.14;99005.72;5053677;28;20071;-82
2023/05/10 04:15:26;;;;;;;5.20;4.70;;;;;;;15.77;68.17;99012.16;5057926;28;20106;-83
2023/05/10 04:17:53;;;;;;;5.93;5.25;;;;;;;15.74;68.26;99005.31;5070732;28;20057;-83
2023/05/10 04:20:20;;;;;;;6.15;5.55;;;;;;;15.73;68.39;99014.25;5070948;28;20660;-82
2023/05/10 04:22:46;;;;;;;5.90;5.30;;;;;;;15.72;68.46;99017.91;5071476;28;20048;-83
2023/05/10 04:25:13;;;;;;;6.25;5.35;;;;;;;15.72;68.56;99011.75;5070752;28;20049;-83
2023/05/10 04:27:39;;;;;;;5.57;5.07;;;;;;;15.72;68.41;99011.75;5070934;28;20044;-83
2023/05/10 04:30:07;;;;;;;5.75;4.50;;;;;;;15.70;68.59;99025.13;5071275;28;20449;-83
2023/05/10 04:32:33;;;;;;;6.20;5.60;;;;;;;15.69;68.45;99019.97;5071375;28;20080;-82
2023/05/10 04:35:00;;;;;;;6.15;5.55;;;;;;;15.67;68.52;99022.78;5069607;28;20056;-82
2023/05/10 04:37:26;;;;;;;6.75;6.05;;;;;;;15.64;68.63;99021.22;5070795;28;20065;-83
2023/05/10 04:39:52;;;;;;;7.95;6.63;;;;;;;15.65;68.75;99022.06;5071130;28;20056;-82
2023/05/10 04:42:19;;;;;;;6.85;6.03;;;;;;;15.63;68.86;99021.38;5069684;28;20056;-83
2023/05/10 04:44:45;;;;;;;7.32;5.97;;;;;;;15.62;68.90;99025.84;5070759;28;20060;-81
2023/05/10 04:47:13;;;;;;;7.30;6.25;;;;;;;15.62;69.14;99028.50;5069890;28;20202;-81
2023/05/10 04:49:39;;;;;;;8.23;6.20;;;;;;;15.62;69.05;99027.66;5069755;28;20067;-81
2023/05/10 04:52:06;;;;;;;6.63;5.93;;;;;;;15.60;69.15;99029.63;5070290;28;20056;-82
2023/05/10 04:54:32;;;;;;;6.70;5.95;;;;;;;15.60;69.15;99035.78;5070078;28;20052;-82
2023/05/10 04:56:58;;;;;;;8.20;6.60;;;;;;;15.59;69.26;99028.75;5067195;28;20056;-82
2023/05/10 04:59:25;;;;;;;6.50;5.55;;;;;;;15.60;69.26;99032.25;5070595;28;20063;-82
2023/05/10 05:01:52;;;;;;;6.97;5.78;;;;;;;15.62;69.43;99046.22;5070557;28;20470;-82
2023/05/10 05:04:18;;;;;;;7.13;5.80;;;;;;;15.60;69.50;99033.13;5070557;28;20044;-82
2023/05/10 05:06:44;;;;;;;5.75;5.25;;;;;;;15.62;69.43;99039.09;5067879;28;20071;-82
2023/05/10 05:09:11;;;;;;;5.65;5.13;;;;;;;15.61;69.54;99042.75;5070415;28;20049;-82
2023/05/10 05:11:38;;;;;;;7.85;4.90;;;;;;;15.63;69.49;99048.72;5068489;28;20049;-82
2023/05/10 05:14:04;;;;;;;5.25;4.75;;;;;;;15.64;69.64;99052.25;5069910;28;20573;-82
2023/05/10 05:16:31;;;;;;;5.13;4.63;;;;;;;15.66;69.49;99054.75;5067405;28;20491;-82
2023/05/10 05:18:59;;;;;;;6.30;5.43;;;;;;;15.67;69.46;99051.97;5070144;28;20068;-82
2023/05/10 05:21:27;;;;;;;7.40;5.60;;;;;;;15.67;69.58;99064.38;5069480;28;20498;-82
2023/05/10 05:23:53;;;;;;;6.20;5.40;;;;;;;15.67;69.43;99059.94;5068284;28;20416;-82
2023/05/10 05:26:20;;;;;;;6.85;5.80;;;;;;;15.66;69.55;99058.22;5069388;28;20427;-82
2023/05/10 05:28:48;;;;;;;6.32;5.70;;;;;;;15.64;69.70;99063.66;5069661;28;20548;-82
2023/05/10 05:31:14;;;;;;;6.35;5.65;;;;;;;15.67;69.72;99070.53;5070087;28;20048;-82
2023/05/10 05:33:41;;;;;;;5.93;5.28;;;;;;;15.67;69.57;99078.50;5069033;28;20053;-82
2023/05/10 05:36:07;;;;;;;7.07;5.63;;;;;;;15.66;69.64;99074.16;5068477;28;20048;-82
2023/05/10 05:38:34;;;;;;;6.50;5.90;;;;;;;15.66;69.60;99079.44;5069419;28;20064;-82
2023/05/10 05:41:00;;;;;;;6.55;5.90;;;;;;;15.66;69.63;99082.09;5068187;28;20052;-82
2023/05/10 05:43:27;;;;;;;6.95;6.07;;;;;;;15.66;69.40;99079.44;5068676;28;20114;-82
2023/05/10 05:45:53;;;;;;;8.52;7.03;;;;;;;15.66;69.59;99086.59;5068512;28;20044;-82
2023/05/10 05:48:20;;;;;;;7.55;6.20;;;;;;;15.64;69.73;99084.06;5068904;28;20101;-82
2023/05/10 05:50:54;;;;;;;8.95;6.10;;;;;;;15.63;70.18;99087.72;5068615;28;20059;-90
2023/05/10 05:53:21;;;;;;;9.10;7.28;;;;;;;15.65;69.82;99091.03;5069716;28;20056;-82
2023/05/10 05:55:55;;;;;;;9.93;7.60;;;;;;;15.62;70.74;99080.69;5067871;28;20052;-82
2023/05/10 05:58:22;;;;;;;9.05;7.40;;;;;;;15.67;69.99;99090.91;5068685;28;20045;-82
2023/05/10 06:00:49;;;;;;;8.70;7.15;;;;;;;15.68;70.10;99092.59;5069951;28;20110;-82
2023/05/10 06:03:16;;;;;;;9.77;8.00;;;;;;;15.68;70.00;99098.75;5068793;28;20053;-82
2023/05/10 06:05:43;;;;;;;10.35;8.32;;;;;;;15.72;70.05;99101.94;5075925;28;20106;-82
2023/05/10 06:08:09;;;;;;;14.45;10.10;;;;;;;15.71;70.06;99103.78;5075133;28;20052;-82
2023/05/10 06:10:36;;;;;;;12.45;9.90;;;;;;;15.72;70.25;99102.78;5075224;28;20143;-82
2023/05/10 06:13:03;;;;;;;13.70;10.40;;;;;;;15.73;70.17;99104.47;5076829;28;20514;-82
2023/05/10 06:18:20;;;;;;;13.40;10.00;;;;;;;15.77;70.16;99102.38;5530966;23;20976;-78
2023/05/10 06:20:46;;;;;;;14.13;10.57;;;;;;;15.79;70.24;99103.09;5056012;28;20461;-77
2023/05/10 06:23:13;;;;;;;12.20;10.10;;;;;;;15.80;70.25;99107.41;5056240;28;20049;-77
2023/05/10 06:25:40;;;;;;;19.15;11.45;;;;;;;15.81;70.33;99110.91;5054503;28;20044;-78
2023/05/10 06:28:06;;;;;;;18.40;11.70;;;;;;;15.85;70.48;99115.78;5054734;28;20041;-77
2023/05/10 06:30:33;;;;;;;18.17;11.35;;;;;;;15.88;70.62;99112.03;5056122;28;20037;-77
2023/05/10 06:32:59;;;;;;;16.45;12.02;;;;;;;15.92;70.49;99115.25;5057041;28;20128;-77
2023/05/10 06:35:26;;;;;;;15.98;12.52;;;;;;;15.98;70.91;99112.06;5056516;28;20063;-77
2023/05/10 06:37:53;;;;;;;20.58;13.40;;;;;;;16.03;70.71;99115.13;5056795;28;20045;-77
2023/05/10 06:40:19;;;;;;;18.73;13.00;;;;;;;16.06;70.71;99108.72;5056851;28;20076;-77
2023/05/10 06:42:47;;;;;;;19.45;13.50;;;;;;;16.11;70.59;99107.31;5056923;28;20049;-78
2023/05/10 06:45:15;;;;;;;22.45;13.27;;;;;;;16.15;70.73;99113.22;5055326;28;20043;-77
2023/05/10 06:47:42;;;;;;;18.48;12.73;;;;;;;16.19;70.23;99117.28;5056310;28;20053;-77
2023/05/10 06:50:09;;;;;;;22.58;14.30;;;;;;;16.21;70.20;99125.91;5055341;28;20037;-77
2023/05/10 06:52:35;;;;;;;20.80;15.25;;;;;;;16.23;70.20;99125.78;5056631;28;20663;-79
2023/05/10 06:55:04;;;;;;;21.73;14.80;;;;;;;16.24;70.13;99138.06;5055312;28;20095;-77
2023/05/10 06:57:31;;;;;;;19.80;14.57;;;;;;;16.25;70.52;99137.09;5056311;28;20132;-77
2023/05/10 06:59:58;;;;;;;19.25;14.40;;;;;;;16.28;70.74;99140.31;5055606;28;20509;-77
2023/05/10 07:02:26;;;;;;;21.73;15.43;;;;;;;16.32;70.57;99130.25;5056117;28;20063;-77
2023/05/10 07:04:53;;;;;;;22.52;14.43;;;;;;;16.36;70.42;99136.09;5056017;28;20120;-77
2023/05/10 07:07:20;;;;;;;22.42;14.30;;;;;;;16.40;70.45;99143.66;5056084;28;20077;-77
2023/05/10 07:09:47;;;;;;;22.27;14.00;;;;;;;16.44;70.28;99138.91;5056832;28;20049;-78
2023/05/10 07:12:13;;;;;;;21.40;13.80;;;;;;;16.47;70.04;99135.13;5056506;28;20041;-77
2023/05/10 07:14:42;;;;;;;20.40;14.50;;;;;;;16.49;69.97;99144.63;5056374;28;20053;-78
2023/05/10 07:17:09;;;;;;;21.52;14.93;;;;;;;16.50;69.92;99138.34;5051808;28;20501;-77
2023/05/10 07:19:36;;;;;;;20.20;13.50;;;;;;;16.51;69.86;99142.69;5053678;28;20045;-77
2023/05/10 07:22:02;;;;;;;22.90;14.73;;;;;;;16.53;69.89;99143.38;5053177;28;20124;-78
2023/05/10 07:24:29;;;;;;;24.42;14.95;;;;;;;16.53;69.84;99138.06;5053128;28;20045;-77
2023/05/10 07:26:56;;;;;;;27.02;17.90;;;;;;;16.53;69.84;99148.69;5052430;28;20084;-77
2023/05/10 07:29:22;;;;;;;29.95;17.60;;;;;;;16.53;69.80;99148.69;5053082;28;20049;-77
2023/05/10 07:31:49;;;;;;;28.38;17.85;;;;;;;16.53;69.82;99156.66;5052787;28;20041;-77
2023/05/10 07:34:15;;;;;;;29.58;19.77;;;;;;;16.53;70.00;99155.81;5053063;28;20059;-77
2023/05/10 07:36:42;;;;;;;31.35;17.70;;;;;;;16.54;70.15;99157.50;5052370;28;20087;-77
2023/05/10 07:39:09;;;;;;;33.50;21.33;;;;;;;16.54;70.20;99158.34;5052904;28;20049;-77
2023/05/10 07:41:38;;;;;;;34.17;21.80;;;;;;;16.56;70.24;99160.03;5052574;28;20049;-78
2023/05/10 07:44:05;;;;;;;37.92;21.08;;;;;;;16.58;70.41;99158.03;5053134;28;20053;-77
2023/05/10 07:46:35;;;;;;;29.80;18.73;;;;;;;16.59;70.92;99157.91;5052162;28;20128;-77
2023/05/10 07:49:02;;;;;;;29.50;20.70;;;;;;;16.63;70.57;99154.00;5052922;28;20044;-78
2023/05/10 07:51:28;;;;;;;33.33;21.35;;;;;;;16.70;70.94;99164.06;5052557;28;20132;-78
2023/05/10 07:53:55;;;;;;;32.22;21.10;;;;;;;16.74;71.05;99155.66;5052626;28;20047;-78
2023/05/10 07:56:31;;;;;;;40.38;23.02;;;;;;;16.78;71.34;99167.69;5052270;28;20051;-78
2023/05/10 07:59:06;;;;;;;37.20;22.88;;;;;;;16.88;71.70;99172.13;5052631;28;20132;-78
2023/05/10 08:01:34;;;;;;;34.15;22.48;;;;;;;16.98;71.26;99172.97;5052485;28;20051;-78
2023/05/10 08:04:02;;;;;;;34.80;22.33;;;;;;;17.04;70.94;99172.41;5052216;28;20484;-78
2023/05/10 08:06:29;;;;;;;31.75;21.67;;;;;;;17.12;70.68;99181.50;5051929;28;20068;-77
2023/05/10 08:08:56;;;;;;;34.75;20.88;;;;;;;17.17;70.50;99182.75;5051785;28;20052;-78
2023/05/10 08:11:23;;;;;;;35.65;22.67;;;;;;;17.22;70.39;99176.13;5052331;28;20048;-78
2023/05/10 08:13:50;;;;;;;35.10;21.00;;;;;;;17.27;70.49;99182.69;5052286;28;20048;-77
2023/05/10 08:16:17;;;;;;;31.40;20.58;;;;;;;17.32;70.29;99179.59;5052045;28;20087;-78
2023/05/10 08:18:45;;;;;;;32.67;21.00;;;;;;;17.36;70.27;99181.00;5050391;28;20052;-78
2023/05/10 08:21:13;;;;;;;35.63;22.40;;;;;;;17.40;69.82;99186.84;5051980;28;20041;-77
2023/05/10 08:23:40;;;;;;;30.95;21.33;;;;;;;17.45;70.01;99190.75;5051954;28;20128;-77
2023/05/10 08:26:07;;;;;;;38.08;22.00;;;;;;;17.50;70.13;99190.31;5051021;28;20178;-77
2023/05/10 08:28:33;;;;;;;34.63;21.60;;;;;;;17.56;69.73;99184.41;5051369;28;20052;-77
2023/05/10 08:31:00;;;;;;;34.08;21.77;;;;;;;17.63;70.12;99183.81;5052084;28;20045;-77
2023/05/10 08:33:26;;;;;;;36.15;22.15;;;;;;;17.69;70.15;99183.22;5051575;28;20041;-77
2023/05/10 08:35:53;;;;;;;31.58;20.73;;;;;;;17.77;70.54;99187.81;5051464;28;20041;-77
2023/05/10 08:38:19;;;;;;;34.22;20.85;;;;;;;17.84;70.16;99188.91;5051335;28;20045;-77
2023/05/10 08:40:50;;;;;;;31.35;20.67;;;;;;;17.91;70.36;99197.13;5051703;28;20056;-77
2023/05/10 08:43:17;;;;;;;33.20;21.20;;;;;;;18.00;70.30;99198.88;5051991;28;20049;-78
2023/05/10 08:45:46;;;;;;;30.00;20.40;;;;;;;18.10;70.20;99194.34;5051181;28;20043;-79
2023/05/10 08:48:14;;;;;;;30.35;20.85;;;;;;;18.21;70.38;99206.63;5051102;28;20051;-78
2023/05/10 08:50:42;;;;;;;31.15;20.80;;;;;;;18.32;70.35;99205.56;5050328;28;20707;-77
2023/05/10 08:53:11;;;;;;;27.90;19.40;;;;;;;18.42;69.82;99209.97;5051050;28;20044;-78
2023/05/10 08:55:39;;;;;;;34.20;18.98;;;;;;;18.51;69.38;99213.56;5050844;28;20132;-79
2023/05/10 08:58:06;;;;;;;30.13;20.27;;;;;;;18.58;68.88;99209.31;5049801;28;20053;-77
2023/05/10 09:00:33;;;;;;;31.70;20.58;;;;;;;18.64;68.65;99218.53;5051321;28;20092;-78
2023/05/10 09:03:01;;;;;;;29.88;18.92;;;;;;;18.65;67.53;99206.88;5051427;28;20052;-77
2023/05/10 09:05:28;;;;;;;26.27;17.83;;;;;;;18.65;67.37;99209.53;5051047;28;20079;-77
2023/05/10 09:07:54;;;;;;;24.35;17.42;;;;;;;18.62;67.15;99216.00;5049771;28;20397;-78
2023/05/10 09:10:22;;;;;;;23.85;17.23;;;;;;;18.58;67.01;99220.78;5050986;28;20037;-77
2023/05/10 09:12:49;;;;;;;31.15;18.77;;;;;;;18.55;67.06;99218.44;5051049;28;20493;-79
2023/05/10 09:15:18;;;;;;;25.63;17.98;;;;;;;18.52;67.54;99220.56;5050861;28;20045;-77
2023/05/10 09:17:46;;;;;;;26.73;17.63;;;;;;;18.52;67.32;99228.56;5050704;28;20037;-78
2023/05/10 09:20:13;;;;;;;25.38;17.42;;;;;;;18.50;67.74;99220.72;5044900;28;20073;-78
2023/05/10 09:22:40;;;;;;;25.00;17.13;;;;;;;18.51;67.55;99226.88;5031269;28;20056;-77
2023/05/10 09:25:07;;;;;;;28.70;18.77;;;;;;;18.53;67.39;99219.56;5013243;28;20049;-77
2023/05/10 09:27:38;;;;;;;28.20;19.50;;;;;;;18.55;67.28;99229.13;5012994;28;20444;-77
2023/05/10 09:30:06;;;;;;;25.25;17.50;;;;;;;18.57;67.01;99232.44;5032805;28;20045;-78
2023/05/10 09:32:40;;;;;;;25.63;17.98;;;;;;;18.56;66.19;99237.94;5050588;28;20041;-77
2023/05/10 09:35:08;;;;;;;26.42;17.70;;;;;;;18.59;66.13;99243.81;5050681;28;20056;-77
2023/05/10 09:37:35;;;;;;;26.08;18.55;;;;;;;18.57;66.15;99243.09;5050416;28;20508;-77
2023/05/10 09:40:05;;;;;;;26.65;18.08;;;;;;;18.53;65.85;99246.22;5050216;28;20678;-77
2023/05/10 09:42:32;;;;;;;28.77;19.40;;;;;;;18.49;66.35;99248.34;5034388;28;20114;-77
2023/05/10 09:45:05;;;;;;;28.52;19.27;;;;;;;18.45;66.18;99253.16;5030397;28;20653;-77
2023/05/10 09:47:33;;;;;;;;;;;;;;;18.47;67.06;99256.50;5030696;28;20041;-77
2023/05/10 09:50:04;;;;;;;31.20;17.38;;;;;;;18.58;67.82;99255.44;5013142;28;19917;-77
2023/05/10 09:52:46;;;;;;;27.70;18.98;;;;;;;18.61;67.61;99259.63;5046800;28;20045;-78
2023/05/10 09:55:13;;;;;;;31.17;19.10;;;;;;;18.72;67.53;99253.22;5037821;28;20128;-78
2023/05/10 09:57:40;;;;;;;26.05;17.45;;;;;;;18.79;67.58;99258.78;5030202;28;20053;-77
2023/05/10 10:00:09;;;;;;;25.13;17.92;;;;;;;18.87;68.32;99257.03;5013177;28;20504;-77
2023/05/10 10:02:36;;;;;;;24.13;17.13;;;;;;;18.96;68.03;99260.63;5030901;28;20050;-77
2023/05/10 10:05:06;;;;;;;23.48;17.20;;;;;;;19.08;67.84;99257.72;5040945;28;20511;-78
2023/05/10 10:07:34;;;;;;;24.67;15.82;;;;;;;19.21;67.88;99262.66;5050152;28;20126;-78
2023/05/10 10:10:02;;;;;;;24.73;15.90;;;;;;;19.33;67.19;99261.38;5050337;28;20060;-78
2023/05/10 10:12:29;;;;;;;22.05;15.07;;;;;;;19.46;67.22;99265.47;5050359;28;20053;-78
2023/05/10 10:14:56;;;;;;;23.73;14.00;;;;;;;19.57;67.10;99269.69;5025225;28;20133;-78
2023/05/10 10:17:26;;;;;;;23.05;15.18;;;;;;;19.68;66.84;99266.78;5030842;28;20045;-78
2023/05/10 10:19:55;;;;;;;18.88;13.50;;;;;;;19.79;66.00;99271.00;5050465;28;20095;-77
2023/05/10 10:22:21;;;;;;;19.55;13.10;;;;;;;19.86;65.50;99268.53;5050259;28;20102;-78
2023/05/10 10:24:50;;;;;;;19.45;13.65;;;;;;;19.91;64.51;99271.53;5048515;28;20495;-78
2023/05/10 10:27:26;;;;;;;17.83;12.68;;;;;;;19.90;62.75;99278.75;5049827;28;20076;-78
2023/05/10 10:30:30;;;;;;;17.45;11.75;;;;;;;19.87;62.87;99268.38;5029383;28;20049;-78
2023/05/10 10:33:22;;;;;;;20.02;11.95;;;;;;;19.85;62.38;99273.00;5030347;28;20442;-78
2023/05/10 10:35:57;;;;;;;20.08;11.82;;;;;;;19.84;63.18;99281.22;5039822;28;20039;-78
2023/05/10 10:38:24;;;;;;;16.95;12.57;;;;;;;19.78;63.00;99272.81;5049158;28;20135;-77
2023/05/10 10:41:09;;;;;;;23.05;14.13;;;;;;;19.69;62.54;99276.44;5050314;28;20041;-78
2023/05/10 10:43:35;;;;;;;21.80;13.85;;;;;;;19.70;62.80;99271.97;5050083;28;20519;-77
2023/05/10 10:46:16;;;;;;;21.15;14.48;;;;;;;19.61;63.53;99268.38;5049723;28;20060;-78
2023/05/10 10:48:49;;;;;;;20.83;14.45;;;;;;;19.59;62.97;99278.41;5049703;28;20076;-77
2023/05/10 10:51:16;;;;;;;23.05;15.07;;;;;;;19.56;63.36;99281.38;5049902;28;20045;-77
2023/05/10 10:53:43;;;;;;;22.55;15.25;;;;;;;19.51;63.29;99281.88;5054046;28;20053;-78
2023/05/10 10:56:13;;;;;;;20.45;14.48;;;;;;;19.44;62.84;99276.28;5051945;28;20049;-78
2023/05/10 10:58:53;;;;;;;17.67;13.50;;;;;;;19.35;62.41;99275.44;5053574;28;20060;-78
2023/05/10 11:01:20;;;;;;;18.58;13.70;;;;;;;19.32;62.58;99283.72;5052676;28;20469;-78
2023/05/10 11:04:02;;;;;;;20.83;14.52;;;;;;;19.22;62.70;99286.50;5053757;28;20055;-77
2023/05/10 11:06:33;;;;;;;19.63;13.27;;;;;;;19.22;63.63;99288.34;5053248;28;20120;-77
2023/05/10 11:09:12;;;;;;;23.25;14.50;;;;;;;19.16;63.20;99287.13;5053812;28;20037;-77
2023/05/10 11:11:51;;;;;;;22.95;14.93;;;;;;;19.16;63.51;99295.13;5053612;28;20049;-78
2023/05/10 11:14:23;;;;;;;22.52;15.27;;;;;;;19.23;64.59;99290.00;5052275;28;20537;-77
2023/05/10 11:16:50;;;;;;;22.65;14.60;;;;;;;19.33;65.54;99289.91;5052353;28;20065;-78
2023/05/10 11:19:18;;;;;;;22.00;14.82;;;;;;;19.46;65.87;99300.16;5051826;28;20103;-77
2023/05/10 11:21:50;;;;;;;19.70;13.57;;;;;;;19.59;64.20;99295.25;5053455;28;20091;-78
2023/05/10 11:24:19;;;;;;;17.77;12.35;;;;;;;19.72;63.77;99300.16;5053593;28;20075;-77
2023/05/10 11:26:50;;;;;;;19.08;11.70;;;;;;;19.82;63.73;99305.41;5051064;28;20464;-78
2023/05/10 11:29:17;;;;;;;22.38;13.07;;;;;;;19.95;63.98;99307.63;5053544;28;20457;-77
2023/05/10 11:31:45;;;;;;;18.48;12.68;;;;;;;20.07;64.15;99310.88;5053097;28;20106;-78
2023/05/10 11:34:25;;;;;;;20.75;13.82;;;;;;;20.23;63.64;99301.25;5053441;28;20037;-77
2023/05/10 11:36:54;;;;;;;19.25;13.20;;;;;;;20.41;63.97;99299.28;5052054;28;20076;-78